Cable, WI

1:17 PM CDT on October 21, 2019 (GMT -0500)
Cable | | Change Station

Elev 1345 ft 46.21 °N, 91.30 °W | Updated 1 minute ago

Rain
Rain
49.6 °F
Feels Like 45 °F
N
11
Wind Variable Wind from ESE
Gusts 20.0 mph

Today
High -- | Low -- °F
--% Chance of Precip.
Yesterday
High -- | Low -- °F
Precip. -- in
Pressure 29.31 in
Visibility 2.5 miles
Clouds Mostly Cloudy 1400 ft
Overcast 2100 ft
Windchill 45 °F
Dew Point 44 °F
Humidity 81%
Rainfall 0.22 in
Snow Depth Not available.
7:30 AM 6:08 PM
Waning Gibbous, 47% visible
METAR KHYR 211753Z AUTO 07013G24KT 2 1/2SM RA BR BKN014 OVC021 11/09 A2930 RMK AO2 PK WND 07026/1725 SLP925 P0019 60080 T01060089 10106 20089 56046
Pressure 29.31 in
Visibility 2.5 miles
Clouds Mostly Cloudy 1400 ft
Overcast 2100 ft
Windchill 45 °F
Dew Point 44 °F
Humidity 81%
Rainfall 0.22 in
Snow Depth Not available.
7:30 AM 6:08 PM
Waning Gibbous, 47% visible
METAR KHYR 211753Z AUTO 07013G24KT 2 1/2SM RA BR BKN014 OVC021 11/09 A2930 RMK AO2 PK WND 07026/1725 SLP925 P0019 60080 T01060089 10106 20089 56046

Get Severe Weather Alerts

Thanks for signing up!

Be on the lookout for a verification email in your inbox.

You'll start receiving the daily forecast at 6 AM.

×

10-Day Weather Forecast

Almanac

Astronomy

Oct. 21, 2019 Rise Set
Actual Time
Civil Twilight
Nautical Twilight
Astronomical Twilight
Moon
Length of Visible Light
Length of Day
Tomorrow will be .
, % of the Moon is Illuminated

Today's Extremes

State Highs State Lows

Community

WunderPhotos

Category 6

Welcome to Category 6. This is the collective home for Weather Underground's featured writeups by Dr. Jeff Masters (right), Bob Henson (left), Chris Burt, and other regular contributors.

Nearby

Air Quality

  Air Quality AQ Index Pollutant
Not available.

Snow Depth

Station Depth Elevation

Earthquake Activity

City Distance Mag. Time & Date
Minimum magnitude displayed is 2.5.

Coastal Water Temperatures

Place Temperature

Stations

Nearby Weather Stations

Station Location Temp. Windchill Dew Point Humidity Wind Precip. Elev Updated Type
                   

Watches & Warnings

There are currently no watches in effect.